createdAt,value
2022-12-17T00:02:17.546Z,102156.41
2022-12-17T00:05:03.486Z,102146.47
2022-12-17T00:07:49.341Z,102154.84
2022-12-17T00:10:35.997Z,102160.09
2022-12-17T00:13:22.544Z,102163.84
2022-12-17T00:16:11.153Z,102170.84
2022-12-17T00:18:57.110Z,102163.72
2022-12-17T00:21:43.054Z,102163.72
2022-12-17T00:24:48.232Z,102159.69
2022-12-17T00:27:34.200Z,102162.34
2022-12-17T00:30:20.220Z,102169.47
2022-12-17T00:33:07.346Z,102167.69
2022-12-17T00:35:52.969Z,102171.41
2022-12-17T00:38:38.691Z,102178.00
2022-12-17T00:41:24.274Z,102168.53
2022-12-17T00:44:10.094Z,102174.00
2022-12-17T00:46:56.321Z,102180.47
2022-12-17T00:49:41.983Z,102183.28
2022-12-17T00:52:35.882Z,102181.63
2022-12-17T00:55:21.724Z,102178.69
2022-12-17T00:58:15.255Z,102190.91
2022-12-17T01:01:01.812Z,102197.16
2022-12-17T01:03:48.247Z,102198.78
2022-12-17T01:06:33.633Z,102193.69
2022-12-17T01:09:19.228Z,102191.66
2022-12-17T01:12:06.256Z,102198.94
2022-12-17T01:14:52.279Z,102204.16
2022-12-17T01:17:38.205Z,102203.00
2022-12-17T01:20:25.608Z,102206.03
2022-12-17T01:23:11.066Z,102202.44
2022-12-17T01:25:58.489Z,102200.78
2022-12-17T01:28:45.008Z,102202.69
2022-12-17T01:31:35.030Z,102201.81
2022-12-17T01:34:21.873Z,102201.94
2022-12-17T01:37:07.249Z,102206.16
2022-12-17T01:39:53.224Z,102197.25
2022-12-17T01:42:39.071Z,102208.06
2022-12-17T01:45:31.061Z,102209.72
2022-12-17T01:48:20.437Z,102210.47
2022-12-17T01:51:15.123Z,102205.63
2022-12-17T01:54:08.646Z,102215.91
2022-12-17T01:56:58.145Z,102214.75
2022-12-17T01:59:55.181Z,102214.47
2022-12-17T02:02:41.172Z,102224.16
2022-12-17T02:05:27.150Z,102224.16
2022-12-17T02:08:40.809Z,102221.75
2022-12-17T02:11:44.852Z,102219.94
2022-12-17T02:14:47.625Z,102232.03
2022-12-17T02:17:38.083Z,102232.66
2022-12-17T02:20:38.564Z,102235.47
2022-12-17T02:23:48.673Z,102236.09
2022-12-17T02:26:58.074Z,102214.97
2022-12-17T02:29:47.445Z,102223.00
2022-12-17T02:32:35.103Z,102221.94
2022-12-17T02:35:25.582Z,102234.31
2022-12-17T02:38:11.051Z,102236.09
2022-12-17T02:40:57.515Z,102224.19
2022-12-17T02:43:44.331Z,102233.28
2022-12-17T02:46:31.379Z,102231.78
2022-12-17T02:49:17.200Z,102240.00
2022-12-17T02:52:03.586Z,102238.06
2022-12-17T02:54:51.281Z,102237.81
2022-12-17T02:57:42.237Z,102228.91
2022-12-17T03:00:33.197Z,102249.75
2022-12-17T03:03:18.951Z,102243.34
2022-12-17T03:06:05.985Z,102250.09
2022-12-17T03:08:51.724Z,102248.19
2022-12-17T03:11:37.677Z,102249.81
2022-12-17T03:14:23.787Z,102246.59
2022-12-17T03:17:11.583Z,102257.78
2022-12-17T03:19:57.553Z,102257.50
2022-12-17T03:22:43.108Z,102267.78
2022-12-17T03:25:28.538Z,102254.22
2022-12-17T03:28:14.559Z,102257.78
2022-12-17T03:30:59.944Z,102261.81
2022-12-17T03:33:45.206Z,102259.16
2022-12-17T03:36:30.557Z,102265.53
2022-12-17T03:39:15.880Z,102264.78
2022-12-17T03:42:01.888Z,102250.63
2022-12-17T03:44:47.221Z,102262.88
2022-12-17T03:47:33.203Z,102260.03
2022-12-17T03:50:18.892Z,102258.25
2022-12-17T03:53:06.045Z,102253.13
2022-12-17T03:55:52.011Z,102246.84
2022-12-17T03:58:38.041Z,102265.03
2022-12-17T04:01:24.048Z,102264.16
2022-12-17T04:04:10.607Z,102261.94
2022-12-17T04:06:56.503Z,102263.91
2022-12-17T04:09:42.200Z,102267.81
2022-12-17T04:12:28.129Z,102270.97
2022-12-17T04:15:13.591Z,102262.03
2022-12-17T04:17:59.457Z,102263.69
2022-12-17T04:20:45.537Z,102265.06
2022-12-17T04:23:31.452Z,102261.47
2022-12-17T04:26:17.417Z,102273.41
2022-12-17T04:29:02.809Z,102269.69
2022-12-17T04:31:48.298Z,102278.25
2022-12-17T04:34:33.743Z,102301.81
2022-12-17T04:37:19.621Z,102306.72
2022-12-17T04:40:06.130Z,102307.31
2022-12-17T04:42:51.986Z,102303.34
2022-12-17T04:45:37.480Z,102315.09
2022-12-17T04:48:26.055Z,102322.72
2022-12-17T04:51:11.404Z,102311.78
2022-12-17T04:53:57.421Z,102320.59
2022-12-17T04:56:42.855Z,102319.84
2022-12-17T04:59:28.326Z,102310.31
2022-12-17T05:02:13.955Z,102317.28
2022-12-17T05:05:00.197Z,102324.88
2022-12-17T05:07:45.616Z,102329.34
2022-12-17T05:10:31.625Z,102332.94
2022-12-17T05:13:18.509Z,102327.25
2022-12-17T05:16:05.888Z,102329.91
2022-12-17T05:18:51.309Z,102335.88
2022-12-17T05:21:36.799Z,102333.50
2022-12-17T05:24:22.706Z,102328.41
2022-12-17T05:27:08.342Z,102320.06
2022-12-17T05:29:53.709Z,102322.59
2022-12-17T05:32:40.055Z,102320.06
2022-12-17T05:35:26.094Z,102314.69
2022-12-17T05:38:11.561Z,102334.38
2022-12-17T05:40:57.585Z,102324.22
2022-12-17T05:43:42.824Z,102316.78
2022-12-17T05:46:28.870Z,102319.75
2022-12-17T05:49:14.304Z,102330.97
2022-12-17T05:51:59.737Z,102314.97
2022-12-17T05:54:45.527Z,102312.28
2022-12-17T05:57:30.784Z,102320.50
2022-12-17T06:00:16.932Z,102331.56
2022-12-17T06:03:02.888Z,102333.06
2022-12-17T06:05:48.588Z,102333.31
2022-12-17T06:08:34.409Z,102330.03
2022-12-17T06:11:20.240Z,102320.25
2022-12-17T06:14:06.576Z,102319.19
2022-12-17T06:16:51.944Z,102332.63
2022-12-17T06:19:37.342Z,102329.66
2022-12-17T06:22:22.972Z,102330.53
2022-12-17T06:25:08.469Z,102324.59
2022-12-17T06:27:57.412Z,102333.88
2022-12-17T06:30:43.098Z,102337.16
2022-12-17T06:33:30.034Z,102332.81
2022-12-17T06:36:22.451Z,102333.69
2022-12-17T06:39:09.404Z,102333.56
2022-12-17T06:42:02.037Z,102330.72
2022-12-17T06:44:49.944Z,102339.13
2022-12-17T06:47:36.594Z,102321.69
2022-12-17T06:50:23.525Z,102360.16
2022-12-17T06:53:23.511Z,102363.44
2022-12-17T06:56:09.982Z,102353.00
2022-12-17T06:58:56.062Z,102356.28
2022-12-17T07:01:42.332Z,102359.88
2022-12-17T07:04:27.970Z,102367.34
2022-12-17T07:07:13.952Z,102363.06
2022-12-17T07:09:59.962Z,102375.84
2022-12-17T07:12:52.070Z,102387.34
2022-12-17T07:15:37.494Z,102389.00
2022-12-17T07:18:23.338Z,102386.72
2022-12-17T07:21:11.403Z,102398.66
2022-12-17T07:23:59.816Z,102391.97
2022-12-17T07:26:45.832Z,102394.34
2022-12-17T07:29:31.616Z,102402.50
2022-12-17T07:32:17.515Z,102386.78
2022-12-17T07:35:03.495Z,102398.56
2022-12-17T07:37:49.161Z,102398.25
2022-12-17T07:40:35.319Z,102401.94
2022-12-17T07:43:28.921Z,102395.41
2022-12-17T07:46:28.667Z,102408.06
2022-12-17T07:49:14.641Z,102421.50
2022-12-17T07:52:00.544Z,102419.56
2022-12-17T07:54:46.128Z,102428.50
2022-12-17T07:57:32.202Z,102422.22
2022-12-17T08:00:18.224Z,102423.84
2022-12-17T08:03:03.801Z,102421.78
2022-12-17T08:05:49.422Z,102425.22
2022-12-17T08:08:35.394Z,102438.50
2022-12-17T08:11:35.439Z,102444.47
2022-12-17T08:14:21.166Z,102455.19
2022-12-17T08:17:07.120Z,102450.72
2022-12-17T08:19:52.694Z,102453.41
2022-12-17T08:22:38.287Z,102453.69
2022-12-17T08:25:25.651Z,102445.78
2022-12-17T08:31:37.011Z,102454.44
2022-12-17T08:34:23.135Z,102461.06
2022-12-17T08:37:08.819Z,102457.72
2022-12-17T08:39:55.322Z,102475.06
2022-12-17T08:42:41.070Z,102467.75
2022-12-17T08:45:27.030Z,102469.56
2022-12-17T08:48:12.790Z,102474.47
2022-12-17T08:50:58.267Z,102476.69
2022-12-17T08:53:44.254Z,102477.25
2022-12-17T08:56:30.175Z,102481.34
2022-12-17T08:59:16.149Z,102474.19
2022-12-17T09:02:02.142Z,102461.94
2022-12-17T09:05:06.141Z,102478.03
2022-12-17T09:07:59.456Z,102470.31
2022-12-17T09:10:45.108Z,102491.59
2022-12-17T09:13:30.670Z,102474.63
2022-12-17T09:16:16.877Z,102476.38
2022-12-17T09:19:02.531Z,102476.94
2022-12-17T09:21:49.518Z,102482.63
2022-12-17T09:24:35.356Z,102480.44
2022-12-17T09:27:20.946Z,102495.56
2022-12-17T09:30:17.209Z,102502.56
2022-12-17T09:33:02.656Z,102512.59
2022-12-17T09:35:48.207Z,102513.34
2022-12-17T09:38:33.980Z,102512.25
2022-12-17T09:41:32.618Z,102507.03
2022-12-17T09:44:32.089Z,102503.44
2022-12-17T09:47:53.064Z,102511.19
2022-12-17T09:50:39.201Z,102497.00
2022-12-17T09:53:41.154Z,102513.53
2022-12-17T09:56:33.568Z,102519.97
2022-12-17T09:59:19.324Z,102523.94
2022-12-17T10:02:06.127Z,102521.84
2022-12-17T10:05:00.605Z,102510.63
2022-12-17T10:07:54.923Z,102512.69
2022-12-17T10:10:46.152Z,102514.66
2022-12-17T10:13:37.594Z,102506.16
2022-12-17T10:16:41.945Z,102514.47
2022-12-17T10:19:43.924Z,102504.69
2022-12-17T10:22:31.951Z,102509.75
2022-12-17T10:25:21.541Z,102509.22
2022-12-17T10:28:07.414Z,102509.22
2022-12-17T10:30:53.401Z,102502.81
2022-12-17T10:33:43.592Z,102518.94
2022-12-17T10:36:40.999Z,102504.31
2022-12-17T10:39:35.713Z,102523.09
2022-12-17T10:42:21.780Z,102525.63
2022-12-17T10:45:07.750Z,102536.28
2022-12-17T10:47:53.399Z,102529.28
2022-12-17T10:50:41.404Z,102528.22
2022-12-17T10:53:42.926Z,102538.97
2022-12-17T10:56:43.691Z,102509.56
2022-12-17T10:59:50.339Z,102528.19
2022-12-17T11:02:43.524Z,102530.47
2022-12-17T11:05:36.033Z,102528.34
2022-12-17T11:08:22.465Z,102532.38
2022-12-17T11:11:08.402Z,102542.00
2022-12-17T11:14:02.961Z,102549.94
2022-12-17T11:16:53.527Z,102545.53
2022-12-17T11:19:41.954Z,102542.56
2022-12-17T11:23:02.734Z,102536.72
2022-12-17T11:26:08.486Z,102537.47
2022-12-17T11:28:55.141Z,102529.72
2022-12-17T11:32:01.663Z,102533.88
2022-12-17T11:35:29.316Z,102519.69
2022-12-17T11:38:40.366Z,102523.81
2022-12-17T11:41:43.438Z,102517.38
2022-12-17T11:44:51.600Z,102536.19
2022-12-17T11:51:20.419Z,102548.19
2022-12-17T11:54:23.700Z,102545.84
2022-12-17T11:57:40.094Z,102548.75
2022-12-17T12:00:36.359Z,102546.38
2022-12-17T12:03:40.253Z,102545.22
2022-12-17T12:06:43.889Z,102536.78
2022-12-17T12:09:29.945Z,102536.78
2022-12-17T12:12:46.184Z,102536.00
2022-12-17T12:16:02.669Z,102529.25
2022-12-17T12:18:56.943Z,102527.03
2022-12-17T12:21:48.809Z,102537.94
2022-12-17T12:25:07.054Z,102541.97
2022-12-17T12:28:11.242Z,102545.00
2022-12-17T12:31:26.729Z,102534.34
2022-12-17T12:34:17.399Z,102529.16
2022-12-17T12:37:06.051Z,102536.88
2022-12-17T12:40:30.664Z,102540.38
2022-12-17T12:43:22.391Z,102522.88
2022-12-17T12:46:26.488Z,102522.59
2022-12-17T12:49:29.524Z,102523.63
2022-12-17T12:52:15.420Z,102518.94
2022-12-17T12:55:03.910Z,102518.94
2022-12-17T12:57:59.745Z,102508.88
2022-12-17T13:00:47.864Z,102532.69
2022-12-17T13:03:42.677Z,102526.34
2022-12-17T13:06:11.592Z,102531.16
2022-12-17T13:08:40.388Z,102520.66
2022-12-17T13:11:28.267Z,102516.81
2022-12-17T13:14:01.307Z,102530.22
2022-12-17T13:16:28.321Z,102527.66
2022-12-17T13:19:21.985Z,102533.25
2022-12-17T13:21:49.132Z,102523.53
2022-12-17T13:24:27.068Z,102521.91
2022-12-17T13:26:54.252Z,102520.72
2022-12-17T13:29:27.726Z,102516.38
2022-12-17T13:32:00.865Z,102516.38
2022-12-17T13:34:43.506Z,102512.03
2022-12-17T13:37:22.466Z,102508.19
2022-12-17T13:39:59.517Z,102523.72
2022-12-17T13:42:32.304Z,102507.28
2022-12-17T13:44:59.756Z,102512.66
2022-12-17T13:47:30.661Z,102520.56
2022-12-17T13:50:32.127Z,102516.25
2022-12-17T13:52:47.053Z,102518.19
2022-12-17T13:55:29.292Z,102518.38
2022-12-17T13:57:56.758Z,102512.44
2022-12-17T14:00:26.746Z,102512.44
2022-12-17T14:02:55.069Z,102522.91
2022-12-17T14:05:25.262Z,102521.13
2022-12-17T14:07:53.548Z,102505.63
2022-12-17T14:10:21.220Z,102515.09
2022-12-17T14:12:49.991Z,102501.50
2022-12-17T14:15:31.953Z,102506.28
2022-12-17T14:17:59.722Z,102507.47
2022-12-17T14:20:33.801Z,102515.69
2022-12-17T14:23:13.529Z,102515.88
2022-12-17T14:25:44.125Z,102520.97
2022-12-17T14:28:25.544Z,102536.22
2022-12-17T14:31:26.136Z,102521.31
2022-12-17T14:34:11.498Z,102538.34
2022-12-17T14:36:41.146Z,102546.06
2022-12-17T14:39:32.460Z,102538.19
2022-12-17T14:42:29.102Z,102538.19
2022-12-17T14:45:22.001Z,102537.75
2022-12-17T14:48:01.187Z,102532.81
2022-12-17T14:50:36.642Z,102540.13
2022-12-17T14:53:24.182Z,102549.56
2022-12-17T14:55:58.856Z,102557.19
2022-12-17T14:58:27.140Z,102546.13
2022-12-17T15:01:14.867Z,102546.25
2022-12-17T15:03:46.134Z,102545.50
2022-12-17T15:06:17.404Z,102543.59
2022-12-17T15:08:47.252Z,102554.91
2022-12-17T15:11:20.231Z,102537.19
2022-12-17T15:13:50.372Z,102545.50
2022-12-17T15:16:21.623Z,102536.56
2022-12-17T15:18:48.822Z,102540.75
2022-12-17T15:21:17.945Z,102557.88
2022-12-17T15:23:46.680Z,102547.47
2022-12-17T15:26:15.153Z,102557.91
2022-12-17T15:28:42.889Z,102570.88
2022-12-17T15:31:14.504Z,102553.28
2022-12-17T15:33:42.342Z,102574.50
2022-12-17T15:36:13.140Z,102564.31
2022-12-17T15:38:40.524Z,102575.84
2022-12-17T15:41:30.860Z,102582.25
2022-12-17T15:43:57.952Z,102579.25
2022-12-17T15:46:25.281Z,102591.50
2022-12-17T15:48:52.365Z,102592.38
2022-12-17T15:51:20.973Z,102591.38
2022-12-17T15:53:48.537Z,102592.38
2022-12-17T15:56:20.880Z,102600.00
2022-12-17T15:58:47.992Z,102600.88
2022-12-17T16:01:15.256Z,102603.75
2022-12-17T16:03:42.822Z,102599.13
2022-12-17T16:06:10.305Z,102594.19
2022-12-17T16:08:39.157Z,102596.44
2022-12-17T16:11:09.196Z,102602.84
2022-12-17T16:13:39.317Z,102596.44
2022-12-17T16:16:10.021Z,102599.41
2022-12-17T16:18:38.732Z,102594.78
2022-12-17T16:21:09.974Z,102605.50
2022-12-17T16:23:37.059Z,102608.50
2022-12-17T16:26:06.952Z,102614.16
2022-12-17T16:28:35.797Z,102610.44
2022-12-17T16:31:07.206Z,102609.69
2022-12-17T16:33:36.675Z,102607.28
2022-12-17T16:36:07.652Z,102597.16
2022-12-17T16:38:36.003Z,102611.63
2022-12-17T16:41:03.537Z,102611.50
2022-12-17T16:43:34.064Z,102613.88
2022-12-17T16:46:02.022Z,102606.25
2022-12-17T16:48:29.864Z,102622.81
2022-12-17T16:50:56.842Z,102618.94
2022-12-17T16:53:24.012Z,102615.66
2022-12-17T16:55:51.045Z,102601.47
2022-12-17T16:58:18.488Z,102618.03
2022-12-17T17:00:46.421Z,102613.88
2022-12-17T17:03:13.647Z,102612.38
2022-12-17T17:05:41.231Z,102613.56
2022-12-17T17:08:08.255Z,102616.69
2022-12-17T17:10:36.885Z,102624.59
2022-12-17T17:13:05.901Z,102611.16
2022-12-17T17:15:33.039Z,102628.19
2022-12-17T17:18:01.871Z,102614.16
2022-12-17T17:20:32.403Z,102634.13
2022-12-17T17:22:59.772Z,102602.34
2022-12-17T17:25:43.934Z,102635.31
2022-12-17T17:28:14.037Z,102628.47
2022-12-17T17:30:41.168Z,102620.84
2022-12-17T17:33:08.260Z,102620.84
2022-12-17T17:35:39.854Z,102633.09
2022-12-17T17:38:09.862Z,102632.94
2022-12-17T17:40:37.095Z,102615.31
2022-12-17T17:43:04.154Z,102628.91
2022-12-17T17:45:31.161Z,102611.72
2022-12-17T17:47:58.174Z,102607.84
2022-12-17T17:50:25.175Z,102624.84
2022-12-17T17:52:52.226Z,102635.59
2022-12-17T17:55:19.285Z,102622.78
2022-12-17T17:57:46.354Z,102629.72
2022-12-17T18:00:13.795Z,102630.78
2022-12-17T18:02:43.762Z,102641.53
2022-12-17T18:05:10.889Z,102637.97
2022-12-17T18:07:38.008Z,102638.41
2022-12-17T18:10:08.619Z,102641.13
2022-12-17T18:12:54.997Z,102643.34
2022-12-17T18:15:22.075Z,102649.34
2022-12-17T18:17:52.222Z,102635.28
2022-12-17T18:20:19.351Z,102649.94
2022-12-17T18:22:47.040Z,102635.28
2022-12-17T18:25:15.776Z,102636.59
2022-12-17T18:27:43.141Z,102667.22
2022-12-17T18:30:10.805Z,102661.81
2022-12-17T18:32:37.853Z,102644.78
2022-12-17T18:35:07.978Z,102660.88
2022-12-17T18:37:37.352Z,102648.94
2022-12-17T18:40:07.261Z,102642.84
2022-12-17T18:42:53.462Z,102651.66
2022-12-17T18:45:20.548Z,102647.78
2022-12-17T18:47:47.788Z,102639.72
2022-12-17T18:50:14.874Z,102649.88
2022-12-17T18:52:41.875Z,102650.47
2022-12-17T18:55:11.749Z,102658.66
2022-12-17T18:57:38.787Z,102658.78
2022-12-17T19:00:07.620Z,102648.19
2022-12-17T19:02:36.672Z,102638.03
2022-12-17T19:05:03.960Z,102650.59
2022-12-17T19:07:31.074Z,102651.28
2022-12-17T19:09:58.137Z,102651.97
2022-12-17T19:12:28.432Z,102665.44
2022-12-17T19:14:55.574Z,102682.72
2022-12-17T19:17:22.553Z,102657.47
2022-12-17T19:19:49.614Z,102675.88
2022-12-17T19:22:16.654Z,102670.66
2022-12-17T19:24:43.615Z,102662.63
2022-12-17T19:27:13.968Z,102657.50
2022-12-17T19:29:46.240Z,102659.03
2022-12-17T19:32:16.098Z,102667.22
2022-12-17T19:34:43.098Z,102676.75
2022-12-17T19:37:10.121Z,102676.56
2022-12-17T19:39:37.259Z,102685.22
2022-12-17T19:42:04.507Z,102691.63
2022-12-17T19:44:31.553Z,102683.91
2022-12-17T19:46:58.505Z,102684.28
2022-12-17T19:49:25.532Z,102684.97
2022-12-17T19:51:52.602Z,102688.09
2022-12-17T19:54:19.641Z,102672.53
2022-12-17T19:56:46.798Z,102684.84
2022-12-17T19:59:14.046Z,102696.91
2022-12-17T20:01:44.050Z,102695.44
2022-12-17T20:04:16.233Z,102702.84
2022-12-17T20:06:44.597Z,102694.97
2022-12-17T20:09:12.907Z,102698.22
2022-12-17T20:11:46.758Z,102710.25
2022-12-17T20:14:15.449Z,102709.50
2022-12-17T20:16:44.922Z,102691.72
2022-12-17T20:19:15.418Z,102712.78
2022-12-17T20:21:42.653Z,102694.50
2022-12-17T20:24:13.730Z,102711.09
2022-12-17T20:26:41.911Z,102694.19
2022-12-17T20:29:09.753Z,102671.81
2022-12-17T20:31:37.238Z,102715.56
2022-12-17T20:34:07.178Z,102722.69
2022-12-17T20:36:37.148Z,102712.91
2022-12-17T20:39:04.474Z,102711.41
2022-12-17T20:41:32.283Z,102716.06
2022-12-17T20:44:07.103Z,102702.88
2022-12-17T20:46:36.683Z,102704.25
2022-12-17T20:49:07.703Z,102709.22
2022-12-17T20:51:37.429Z,102716.41
2022-12-17T20:54:04.527Z,102731.25
2022-12-17T20:56:34.047Z,102715.53
2022-12-17T20:59:07.096Z,102726.72
2022-12-17T21:01:37.409Z,102718.63
2022-12-17T21:04:07.377Z,102723.84
2022-12-17T21:06:43.580Z,102728.44
2022-12-17T21:09:15.128Z,102732.28
2022-12-17T21:11:42.587Z,102708.25
2022-12-17T21:14:12.819Z,102717.56
2022-12-17T21:16:42.282Z,102713.97
2022-12-17T21:19:13.020Z,102699.13
2022-12-17T21:21:40.122Z,102696.91
2022-12-17T21:24:08.282Z,102708.03
2022-12-17T21:26:38.512Z,102726.72
2022-12-17T21:29:08.370Z,102735.19
2022-12-17T21:31:41.268Z,102733.97
2022-12-17T21:34:13.079Z,102737.53
2022-12-17T21:36:43.408Z,102727.53
2022-12-17T21:39:13.129Z,102704.09
2022-12-17T21:41:45.043Z,102725.00
2022-12-17T21:44:15.144Z,102737.84
2022-12-17T21:46:43.636Z,102750.56
2022-12-17T21:49:14.004Z,102741.75
2022-12-17T21:51:41.424Z,102753.75
2022-12-17T21:54:17.252Z,102745.50
2022-12-17T21:56:47.074Z,102749.34
2022-12-17T21:59:14.214Z,102726.56
2022-12-17T22:01:41.546Z,102747.28
2022-12-17T22:04:08.710Z,102754.38
2022-12-17T22:06:40.463Z,102775.41
2022-12-17T22:09:19.859Z,102771.13
2022-12-17T22:12:11.403Z,102766.47
2022-12-17T22:14:38.744Z,102754.09
2022-12-17T22:17:07.022Z,102749.63
2022-12-17T22:19:34.211Z,102759.72
2022-12-17T22:22:01.350Z,102774.34
2022-12-17T22:24:29.337Z,102779.03
2022-12-17T22:27:03.106Z,102776.34
2022-12-17T22:29:49.493Z,102782.69
2022-12-17T22:32:34.878Z,102786.66
2022-12-17T22:36:20.660Z,102780.88
2022-12-17T22:40:52.347Z,102788.81
2022-12-17T22:44:30.217Z,102783.56
2022-12-17T22:44:41.156Z,102756.03
2022-12-17T22:46:19.471Z,102756.25
2022-12-17T22:48:46.978Z,102774.03
2022-12-17T22:51:17.838Z,102758.34
2022-12-17T22:53:55.186Z,102770.06
2022-12-17T22:56:51.262Z,102770.94
2022-12-17T22:59:19.406Z,102767.38
2022-12-17T23:01:46.777Z,102751.75
2022-12-17T23:04:15.726Z,102779.31
2022-12-17T23:06:47.701Z,102766.91
2022-12-17T23:09:18.963Z,102785.44
2022-12-17T23:11:47.572Z,102783.63
2022-12-17T23:14:16.651Z,102773.72
2022-12-17T23:16:44.239Z,102774.44
2022-12-17T23:19:11.516Z,102782.03
2022-12-17T23:21:38.642Z,102776.97
2022-12-17T23:24:09.729Z,102787.06
2022-12-17T23:26:37.515Z,102782.03
2022-12-17T23:29:08.512Z,102776.97
2022-12-17T23:31:38.656Z,102762.22
2022-12-17T23:34:07.723Z,102775.94
2022-12-17T23:36:35.850Z,102780.84
2022-12-17T23:39:03.239Z,102790.19
2022-12-17T23:41:31.093Z,102796.47
2022-12-17T23:43:59.624Z,102795.19
2022-12-17T23:46:28.704Z,102785.66
2022-12-17T23:48:56.196Z,102782.56
2022-12-17T23:51:24.774Z,102777.75
2022-12-17T23:53:52.138Z,102762.63
2022-12-17T23:56:22.760Z,102761.41
2022-12-17T23:58:53.804Z,102759.59
